Klondike, Texas
Current Conditions -  °F | °C
As of 4:15 AM on Tuesday 21 Oct 2014 (Local Time) from KSLR Reporting Station
NA  
Wind Chill: 59°   Ceiling: NA
Heat Index: 59°   Visibility: 10mi
Dew Point: 58°   Wind: 0mph
Humidity: 94%   Direction: NA
Pressure: 30.06"   Gusts: NA
Location:  33.33°N, 95.76°W
Report Text: KSLR 210915Z AUTO 00000KT 10SM 15/14 A3006 RMK AO2 T01520143
Loading
Personal Weather Stations






























Interactive Weather Map
Tropical Storm Tracking
New forecast layout! Learn more

10-Day Weather Forecast

Advertisements
Track Severe Weather on mobile